»·PEaware :: DCM180 KGCN-KSNA

DCM180 :: KGCN-KSNA

FLIGHT INFORMATION

Flight Status: Arrived
Operator:
DotCom
More flights by this operator :: More flights under this callsign
Pilot: Etienne B. (28927)
Aircraft: AIRBUS A320
(A320)
More flights by this aircraft type
Origin: KGCN Grand Canyon Natl Park
United States
Destination: KSNA John Wayne-Orange Co
United States
More flights between these airports :: More routes between these airports
Route: PARKS4 PGS EED DSNEE4
File this flight plan on PilotEdge
Remarks: RMK / SIMBRIEF
Altitude:
(Current/Filed)
36,000ft
Speed:
(Current/Filed)
440kts
Departed: 25-Apr-20 04:13 PM
Arrived: 25-Apr-20 05:08 PM
Distance/Time
Traveled:
313nm/0:55
Distance/Time
To Go:
Arrived

Flight Plot

Page will automatically refresh every two minutes.

Flight plan parsing failed; only flown route is shown


Map Options




Map Legend


Flown Route
Filed Route
Departure Airport
Arrival Airport
Navaid (VOR, NDB)
Fix

Horizontal Profiles

Position Reports

Time Latitude Longitude Heading Altitude Ground
Speed
25-Apr-20 15:56 35.960444 -112.135734 130 6632ft 0kts
25-Apr-20 15:57 35.960444 -112.135734 130 6632ft 0kts
25-Apr-20 15:58 35.960444 -112.135734 130 6632ft 0kts
25-Apr-20 15:59 35.960444 -112.135734 130 6632ft 0kts
25-Apr-20 16:00 35.960444 -112.135734 130 6632ft 0kts
25-Apr-20 16:01 35.960444 -112.135734 130 6632ft 0kts
25-Apr-20 16:02 35.960444 -112.135734 130 6632ft 0kts
25-Apr-20 16:03 35.960444 -112.135734 130 6632ft 0kts
25-Apr-20 16:04 35.960444 -112.135734 130 6632ft 0kts
25-Apr-20 16:05 35.960444 -112.135734 130 6632ft 0kts
25-Apr-20 16:06 35.960444 -112.135734 130 6632ft 0kts
25-Apr-20 16:07 35.960558 -112.135982 106 6631ft 2kts
25-Apr-20 16:08 35.960447 -112.136654 48 6627ft 2kts
25-Apr-20 16:09 35.960305 -112.136810 39 6627ft 0kts
25-Apr-20 16:10 35.960363 -112.136751 39 6627ft 2kts
25-Apr-20 16:11 35.960913 -112.136341 6 6629ft 6kts
25-Apr-20 16:12 35.954454 -112.144761 221 6607ft 128kts
25-Apr-20 16:13 35.918308 -112.188859 247 7845ft 214kts
25-Apr-20 16:14 35.925380 -112.266919 282 9588ft 262kts
25-Apr-20 16:15 35.915096 -112.360454 250 11358ft 313kts
25-Apr-20 16:16 35.884074 -112.472138 254 12474ft 369kts
25-Apr-20 16:17 35.854842 -112.594792 254 14619ft 378kts
25-Apr-20 16:18 35.824846 -112.720456 254 16638ft 385kts
25-Apr-20 16:19 35.794335 -112.848205 254 18473ft 393kts
25-Apr-20 16:20 35.762914 -112.978827 255 20063ft 403kts
25-Apr-20 16:21 35.730440 -113.112746 255 21541ft 412kts
25-Apr-20 16:22 35.697242 -113.249088 255 22914ft 420kts
25-Apr-20 16:23 35.663354 -113.387565 255 24183ft 426kts
25-Apr-20 16:25 35.625556 -113.526148 244 25342ft 436kts
25-Apr-20 16:26 35.541180 -113.636394 225 26378ft 451kts
25-Apr-20 16:27 35.446529 -113.739663 225 27360ft 457kts
25-Apr-20 16:28 35.351084 -113.843719 225 28254ft 462kts
25-Apr-20 16:29 35.254506 -113.948653 225 29031ft 467kts
25-Apr-20 16:30 35.157942 -114.053193 226 29995ft 464kts
25-Apr-20 16:31 35.061292 -114.157501 226 30958ft 461kts
25-Apr-20 16:32 34.965205 -114.260894 225 31640ft 464kts
25-Apr-20 16:33 34.868714 -114.364369 225 32189ft 468kts
25-Apr-20 16:34 34.771740 -114.469105 229 32974ft 463kts
25-Apr-20 16:35 34.692273 -114.589784 236 33688ft 456kts
25-Apr-20 16:36 34.614682 -114.711071 236 34334ft 454kts
25-Apr-20 16:37 34.537331 -114.831582 236 34953ft 452kts
25-Apr-20 16:38 34.460061 -114.951562 236 35518ft 451kts
25-Apr-20 16:39 34.383384 -115.070292 235 35981ft 447kts
25-Apr-20 16:39 34.319610 -115.168747 235 35985ft 444kts
25-Apr-20 16:40 34.243495 -115.285914 235 35170ft 445kts
25-Apr-20 16:42 34.153940 -115.423288 235 34115ft 448kts
25-Apr-20 16:43 34.076759 -115.541864 238 33182ft 449kts
25-Apr-20 16:43 34.042365 -115.656064 262 32333ft 442kts
25-Apr-20 16:44 34.021856 -115.802522 262 31342ft 445kts
25-Apr-20 16:45 34.001192 -115.948531 262 28690ft 447kts
25-Apr-20 16:46 33.980024 -116.097074 261 25570ft 452kts
25-Apr-20 16:47 33.960214 -116.239483 263 24535ft 410kts
25-Apr-20 16:48 33.944189 -116.368648 263 23449ft 375kts
25-Apr-20 16:49 33.929176 -116.490355 263 21726ft 361kts
25-Apr-20 16:50 33.914288 -116.608236 262 19867ft 354kts
25-Apr-20 16:51 33.899517 -116.722390 262 17962ft 350kts
25-Apr-20 16:52 33.886184 -116.837091 263 16057ft 344kts
25-Apr-20 16:53 33.873934 -116.949813 262 14178ft 337kts
25-Apr-20 16:54 33.861684 -117.060827 262 12311ft 330kts
25-Apr-20 16:55 33.849644 -117.168898 261 10568ft 320kts
25-Apr-20 16:56 33.838585 -117.267084 261 9835ft 273kts
25-Apr-20 16:57 33.828433 -117.356951 262 8537ft 269kts
25-Apr-20 16:58 33.819048 -117.439234 261 8078ft 236kts
25-Apr-20 16:59 33.797691 -117.514917 262 7647ft 240kts
25-Apr-20 17:00 33.805078 -117.594827 291 6538ft 247kts
25-Apr-20 17:01 33.832177 -117.670151 291 4578ft 244kts
25-Apr-20 17:02 33.826933 -117.747923 255 2945ft 227kts
25-Apr-20 17:03 33.793688 -117.792354 211 2345ft 169kts
25-Apr-20 17:04 33.758004 -117.816621 207 1673ft 138kts
25-Apr-20 17:05 33.723742 -117.838343 206 962ft 138kts
25-Apr-20 17:06 33.689902 -117.859833 207 246ft 137kts
25-Apr-20 17:07 33.669442 -117.871990 138 58ft 2kts
25-Apr-20 17:08 33.669440 -117.871986 134 58ft 0kts
25-Apr-20 17:09 33.669058 -117.870917 41 58ft 5kts
25-Apr-20 17:10 33.672189 -117.868119 29 55ft 17kts
25-Apr-20 17:11 33.676833 -117.864832 27 48ft 22kts
25-Apr-20 17:12 33.678627 -117.863171 114 47ft 2kts

Navigation Log

Ident Type
Flight plan parsing failed, navigation log unavailable